Time;durP1;ratioP1;P1;durP2;ratioP2;P2;SDS_P1;SDS_P2;PMS_P1;PMS_P2;Temp;Humidity;BMP_temperature;BMP_pressure;BME280_temperature;BME280_humidity;BME280_pressure;Samples;Min_cycle;Max_cycle;Signal;HPM_P1;HPM_P2
2023/04/09 00:01:09;;;;;;;59.60;30.90;;;;;;;5.31;100.00;101488.91;218320;1289;138676;-89
2023/04/09 00:06:10;;;;;;;51.60;28.80;;;;;;;5.36;100.00;101486.04;218775;1288;139507;-89
2023/04/09 00:11:11;;;;;;;53.00;28.80;;;;;;;5.41;100.00;101486.19;218424;1288;139823;-89
2023/04/09 00:16:11;;;;;;;54.00;30.90;;;;;;;5.46;100.00;101489.70;218960;1287;138575;-88
2023/04/09 00:21:11;;;;;;;52.50;30.30;;;;;;;5.51;100.00;101489.07;218245;1288;139332;-88
2023/04/09 00:26:11;;;;;;;53.50;29.60;;;;;;;5.54;100.00;101488.05;218850;1288;138980;-89
2023/04/09 00:31:12;;;;;;;50.00;28.40;;;;;;;5.57;100.00;101488.60;218380;1286;138772;-89
2023/04/09 00:36:12;;;;;;;49.80;27.70;;;;;;;5.60;100.00;101487.80;218964;1288;138765;-89
2023/04/09 00:41:13;;;;;;;50.40;27.20;;;;;;;5.63;100.00;101482.24;218472;1287;138824;-89
2023/04/09 00:46:13;;;;;;;45.70;26.30;;;;;;;5.66;100.00;101482.92;218863;1288;138642;-88
2023/04/09 00:51:14;;;;;;;45.80;26.20;;;;;;;5.69;100.00;101488.15;218367;1287;139068;-89
2023/04/09 00:56:16;;;;;;;48.10;26.20;;;;;;;5.71;100.00;101484.09;218838;1287;138966;-90
2023/04/09 01:01:16;;;;;;;48.50;26.40;;;;;;;5.72;100.00;101483.39;218326;1287;139696;-89
2023/04/09 01:06:27;;;;;;;52.50;29.60;;;;;;;5.73;100.00;101479.28;218910;1286;139723;-89
2023/04/09 01:11:55;;;;;;;48.90;27.20;;;;;;;5.73;100.00;101475.39;218340;1286;140229;-90
2023/04/09 01:17:02;;;;;;;45.40;26.40;;;;;;;5.73;100.00;101482.88;218854;1288;108151;-90
2023/04/09 01:22:04;;;;;;;;;;;;;;;5.72;100.00;101483.17;218416;1288;139001;-90
2023/04/09 01:27:06;;;;;;;47.60;26.50;;;;;;;5.72;100.00;101485.04;218928;1288;124555;-89
2023/04/09 01:32:08;;;;;;;47.70;27.90;;;;;;;5.73;100.00;101485.39;218377;1287;139010;-89
2023/04/09 01:37:08;;;;;;;47.70;26.70;;;;;;;5.73;100.00;101483.42;218777;1288;139531;-89
2023/04/09 01:42:11;;;;;;;47.30;27.30;;;;;;;5.73;100.00;101483.11;218372;1287;139594;-89
2023/04/09 01:47:12;;;;;;;46.80;27.30;;;;;;;5.74;100.00;101485.35;219014;1288;95131;-89
2023/04/09 01:52:13;;;;;;;49.90;27.00;;;;;;;5.73;100.00;101485.63;218358;1288;140845;-89
2023/04/09 01:57:14;;;;;;;49.90;26.70;;;;;;;5.73;100.00;101485.87;218819;1287;138557;-89
2023/04/09 02:02:21;;;;;;;45.20;26.80;;;;;;;5.74;100.00;101486.45;218230;1287;139589;-89
2023/04/09 02:07:34;;;;;;;49.40;26.70;;;;;;;5.76;100.00;101489.02;218792;1288;138616;-89
2023/04/09 02:12:37;;;;;;;50.30;27.60;;;;;;;5.77;100.00;101486.80;218197;1288;139116;-87
2023/04/09 02:17:37;;;;;;;44.50;26.30;;;;;;;5.78;100.00;101482.79;218942;1288;139456;-89
2023/04/09 02:22:37;;;;;;;44.80;25.40;;;;;;;5.78;100.00;101480.48;218426;1286;139263;-88
2023/04/09 02:27:38;;;;;;;47.50;25.60;;;;;;;5.80;100.00;101485.64;218797;1288;139407;-89
2023/04/09 02:32:38;;;;;;;45.80;26.30;;;;;;;5.80;100.00;101484.98;218187;1288;138993;-89
2023/04/09 02:37:39;;;;;;;45.80;26.00;;;;;;;5.81;100.00;101485.65;218847;1288;138878;-89
2023/04/09 02:42:39;;;;;;;48.40;27.40;;;;;;;5.80;100.00;101478.10;218321;1286;139494;-89
2023/04/09 02:47:40;;;;;;;52.70;29.30;;;;;;;5.79;100.00;101476.38;218913;1289;139207;-89
2023/04/09 02:52:40;;;;;;;46.80;26.90;;;;;;;5.77;100.00;101473.56;218271;1288;138797;-89
2023/04/09 02:57:41;;;;;;;43.50;25.50;;;;;;;5.77;100.00;101467.17;218847;1288;138995;-89
2023/04/09 03:02:41;;;;;;;45.40;25.50;;;;;;;5.78;100.00;101462.39;218385;1286;139357;-89
2023/04/09 03:07:41;;;;;;;44.30;25.80;;;;;;;5.79;100.00;101457.91;218939;1288;138865;-90
2023/04/09 03:12:43;;;;;;;46.30;26.90;;;;;;;5.78;100.00;101458.84;218333;1291;139308;-89
2023/04/09 03:17:43;;;;;;;43.60;26.20;;;;;;;5.77;100.00;101464.17;218661;1288;138641;-88
2023/04/09 03:22:44;;;;;;;46.50;26.70;;;;;;;5.74;100.00;101465.52;218358;1288;138527;-89
2023/04/09 03:27:45;;;;;;;46.50;26.40;;;;;;;5.70;100.00;101459.42;218702;1289;138502;-88
2023/04/09 03:32:45;;;;;;;48.60;26.70;;;;;;;5.67;100.00;101451.38;218368;1288;138673;-88
2023/04/09 03:37:46;;;;;;;50.00;26.60;;;;;;;5.63;100.00;101449.58;218851;1288;138679;-89
2023/04/09 03:42:46;;;;;;;46.50;26.80;;;;;;;5.59;100.00;101450.46;218305;1288;139436;-90
2023/04/09 03:47:47;;;;;;;49.90;25.90;;;;;;;5.54;100.00;101447.83;218807;1288;138601;-88
2023/04/09 03:52:47;;;;;;;45.60;25.00;;;;;;;5.51;100.00;101450.33;218351;1289;139518;-89
2023/04/09 03:57:48;;;;;;;50.00;27.50;;;;;;;5.51;100.00;101449.45;218784;1288;137363;-88
2023/04/09 04:02:48;;;;;;;48.00;26.80;;;;;;;5.49;100.00;101442.43;218253;1290;138701;-89
2023/04/09 04:07:48;;;;;;;44.60;25.40;;;;;;;5.46;100.00;101438.09;218647;1291;139046;-90
2023/04/09 04:12:49;;;;;;;49.40;26.80;;;;;;;5.45;100.00;101443.21;218316;1288;140506;-88
2023/04/09 04:17:50;;;;;;;50.20;27.30;;;;;;;5.43;100.00;101442.27;218686;1288;218933;-88
2023/04/09 04:22:50;;;;;;;49.30;26.20;;;;;;;5.42;100.00;101445.30;218386;1286;139400;-89
2023/04/09 04:27:50;;;;;;;53.40;28.60;;;;;;;5.41;100.00;101448.89;218704;1289;139616;-88
2023/04/09 04:32:51;;;;;;;49.40;28.00;;;;;;;5.42;100.00;101452.01;218305;1287;139111;-89
2023/04/09 04:37:51;;;;;;;53.60;27.80;;;;;;;5.44;100.00;101453.59;218710;1288;138704;-88
2023/04/09 04:42:52;;;;;;;52.40;29.30;;;;;;;5.46;100.00;101460.85;218279;1288;138934;-88
2023/04/09 04:47:52;;;;;;;55.60;28.40;;;;;;;5.48;100.00;101462.75;218863;1288;138750;-88
2023/04/09 04:52:53;;;;;;;60.40;30.80;;;;;;;5.50;100.00;101462.27;218416;1288;138856;-89
2023/04/09 04:57:53;;;;;;;54.00;29.60;;;;;;;5.53;100.00;101463.05;218834;1289;139755;-88
2023/04/09 05:02:54;;;;;;;52.50;27.30;;;;;;;5.56;100.00;101460.00;218296;1286;138939;-88
2023/04/09 05:07:54;;;;;;;64.80;29.80;;;;;;;5.58;100.00;101458.70;218872;1288;139310;-88
2023/04/09 05:12:55;;;;;;;64.40;29.90;;;;;;;5.62;100.00;101457.70;218341;1286;138726;-88
2023/04/09 05:17:56;;;;;;;60.40;29.50;;;;;;;5.66;100.00;101460.03;218883;1287;138849;-89
2023/04/09 05:22:57;;;;;;;62.30;29.50;;;;;;;5.74;100.00;101458.33;218410;1289;138732;-89
2023/04/09 05:27:57;;;;;;;63.20;31.00;;;;;;;5.82;100.00;101459.76;218659;1286;138480;-88
2023/04/09 05:32:58;;;;;;;62.30;31.60;;;;;;;5.89;100.00;101459.73;218345;1286;139286;-89
2023/04/09 05:37:58;;;;;;;63.10;31.00;;;;;;;5.99;100.00;101454.72;218876;1289;139988;-89
2023/04/09 05:42:59;;;;;;;67.20;29.90;;;;;;;6.10;100.00;101445.95;218344;1290;139457;-89
2023/04/09 05:47:59;;;;;;;68.90;30.70;;;;;;;6.25;100.00;101445.95;218905;1289;138843;-89
2023/04/09 05:52:59;;;;;;;64.30;29.90;;;;;;;6.40;100.00;101449.98;218465;1289;140118;-88
2023/04/09 05:58:00;;;;;;;54.80;28.00;;;;;;;6.56;100.00;101455.62;218877;1288;138428;-89
2023/04/09 06:03:00;;;;;;;54.00;27.90;;;;;;;6.73;100.00;101461.76;218351;1286;139096;-88
2023/04/09 06:08:01;;;;;;;50.20;25.80;;;;;;;6.90;100.00;101462.80;218846;1286;139004;-89
2023/04/09 06:13:01;;;;;;;54.80;27.30;;;;;;;7.06;100.00;101469.81;218346;1286;138629;-89
2023/04/09 06:18:02;;;;;;;55.30;27.40;;;;;;;7.21;100.00;101476.92;218826;1286;138701;-87
2023/04/09 06:23:02;;;;;;;51.30;26.10;;;;;;;7.35;100.00;101473.97;218476;1286;138929;-86
2023/04/09 06:28:03;;;;;;;53.30;26.90;;;;;;;7.49;100.00;101473.32;218804;1286;139134;-88
2023/04/09 06:33:03;;;;;;;46.10;25.10;;;;;;;7.64;100.00;101475.39;218353;1286;138684;-87
2023/04/09 06:38:04;;;;;;;45.00;25.80;;;;;;;7.74;100.00;101475.70;218842;1286;138897;-87
2023/04/09 06:43:05;;;;;;;46.70;24.70;;;;;;;7.81;100.00;101473.85;218316;1286;139531;-88
2023/04/09 06:48:06;;;;;;;48.00;24.30;;;;;;;7.89;100.00;101474.51;218877;1286;139553;-88
2023/04/09 06:53:06;;;;;;;45.30;23.50;;;;;;;7.99;100.00;101474.95;218343;1288;139006;-86
2023/04/09 06:58:07;;;;;;;52.80;26.70;;;;;;;8.00;100.00;101477.80;218689;1287;139283;-89
2023/04/09 07:03:07;;;;;;;50.00;27.20;;;;;;;7.95;100.00;101478.30;218176;1288;139560;-85
2023/04/09 07:08:08;;;;;;;50.90;26.90;;;;;;;7.92;100.00;101478.61;218782;1288;141330;-84
2023/04/09 07:13:08;;;;;;;56.00;29.50;;;;;;;8.08;100.00;101483.91;218294;1286;139597;-85
2023/04/09 07:18:09;;;;;;;55.20;29.30;;;;;;;8.31;100.00;101498.23;218832;1288;139513;-85
2023/04/09 07:23:09;;;;;;;49.40;27.10;;;;;;;8.49;100.00;101503.59;218461;1287;138664;-85
2023/04/09 07:28:10;;;;;;;54.70;28.00;;;;;;;8.61;100.00;101507.32;218722;1288;139346;-85
2023/04/09 07:33:11;;;;;;;54.00;29.70;;;;;;;8.73;100.00;101505.32;218041;1286;139078;-85
2023/04/09 07:38:11;;;;;;;50.40;28.50;;;;;;;8.88;100.00;101514.17;218523;1288;139327;-85
2023/04/09 07:43:11;;;;;;;52.80;28.90;;;;;;;9.01;100.00;101518.40;218191;1288;141662;-85
2023/04/09 07:48:12;;;;;;;49.50;28.60;;;;;;;9.22;100.00;101517.48;218785;1288;139333;-85
2023/04/09 07:53:12;;;;;;;46.50;26.80;;;;;;;9.49;100.00;101517.73;218332;1286;139604;-85
2023/04/09 07:58:13;;;;;;;45.70;26.70;;;;;;;9.66;100.00;101518.94;218822;1286;138968;-85
2023/04/09 08:03:13;;;;;;;46.70;27.30;;;;;;;9.99;100.00;101519.13;218376;1286;140986;-85
2023/04/09 08:08:14;;;;;;;47.10;25.60;;;;;;;10.35;100.00;101513.45;218852;1286;138978;-85
2023/04/09 08:13:14;;;;;;;40.80;23.60;;;;;;;10.55;100.00;101518.84;218240;1285;139124;-85
2023/04/09 08:18:15;;;;;;;40.00;23.20;;;;;;;10.67;100.00;101532.98;218828;1288;139588;-86
2023/04/09 08:23:15;;;;;;;40.30;23.20;;;;;;;10.81;100.00;101532.09;218396;1288;140556;-87
2023/04/09 08:28:16;;;;;;;35.70;22.70;;;;;;;11.02;99.93;101534.48;218807;1288;139345;-85
2023/04/09 08:33:16;;;;;;;36.40;21.80;;;;;;;11.09;100.00;101530.42;218354;1288;138846;-85
2023/04/09 08:38:18;;;;;;;34.30;21.60;;;;;;;11.26;99.99;101528.34;218825;1286;139070;-86
2023/04/09 08:43:23;;;;;;;34.90;21.20;;;;;;;11.54;100.00;101530.17;218280;1288;139564;-85
2023/04/09 08:48:24;;;;;;;33.70;21.80;;;;;;;11.93;100.00;101526.06;218808;1287;138964;-86
2023/04/09 08:53:26;;;;;;;35.00;22.00;;;;;;;12.39;100.00;101524.11;218470;1286;139720;-86
2023/04/09 08:58:26;;;;;;;35.70;21.70;;;;;;;12.83;99.73;101522.42;218832;1288;94819;-86
2023/04/09 09:03:27;;;;;;;30.40;19.20;;;;;;;13.25;99.57;101518.40;218297;1286;138945;-85
2023/04/09 09:08:29;;;;;;;28.90;19.40;;;;;;;13.62;97.98;101506.06;218733;1286;139143;-86
2023/04/09 09:13:30;;;;;;;27.00;17.50;;;;;;;13.92;96.29;101507.09;218159;1288;140592;-85
2023/04/09 09:18:41;;;;;;;24.90;16.90;;;;;;;14.08;93.37;101515.63;218817;1286;139229;-86
2023/04/09 09:23:43;;;;;;;24.80;15.90;;;;;;;14.27;94.53;101519.30;218305;1287;139559;-86
2023/04/09 09:28:45;;;;;;;22.10;15.70;;;;;;;14.54;93.99;101523.39;218814;1288;94785;-86
2023/04/09 09:33:47;;;;;;;24.70;16.60;;;;;;;14.82;92.47;101522.06;218485;1286;138618;-86
2023/04/09 09:38:55;;;;;;;21.60;14.90;;;;;;;14.89;90.11;101528.02;218258;1286;140140;-86
2023/04/09 09:43:56;;;;;;;22.20;14.80;;;;;;;14.89;89.64;101521.91;218628;1288;139590;-86
2023/04/09 09:48:56;;;;;;;24.60;15.10;;;;;;;15.04;88.99;101519.45;218269;1288;140150;-86
2023/04/09 09:53:57;;;;;;;20.20;14.30;;;;;;;15.12;86.73;101517.94;218877;1288;140196;-85
2023/04/09 09:59:22;;;;;;;20.30;14.00;;;;;;;15.08;87.21;101514.17;218329;1286;139646;-86
2023/04/09 10:04:26;;;;;;;22.00;14.90;;;;;;;15.35;87.34;101508.91;218639;1286;138939;-87
2023/04/09 10:09:26;;;;;;;20.70;13.90;;;;;;;15.46;86.24;101502.84;218291;1288;139765;-86
2023/04/09 10:14:28;;;;;;;22.00;15.00;;;;;;;15.81;87.44;101497.00;218820;1287;139077;-86
2023/04/09 10:19:30;;;;;;;23.30;16.60;;;;;;;16.08;84.87;101494.07;218382;1288;139359;-85
2023/04/09 10:24:33;;;;;;;24.00;15.80;;;;;;;16.24;84.16;101495.18;218907;1286;138968;-86
2023/04/09 10:29:41;;;;;;;20.50;13.80;;;;;;;16.45;83.82;101498.16;218257;1286;138841;-86
2023/04/09 10:34:42;;;;;;;19.30;13.90;;;;;;;16.57;81.74;101495.29;218887;1288;94725;-86
2023/04/09 10:39:45;;;;;;;23.80;13.90;;;;;;;16.57;81.37;101495.60;218330;1287;138590;-86
2023/04/09 10:44:45;;;;;;;18.50;13.20;;;;;;;16.65;80.81;101488.73;218888;1287;139730;-86
2023/04/09 10:49:48;;;;;;;18.70;13.40;;;;;;;16.78;79.70;101489.16;218328;1286;139103;-85
2023/04/09 10:54:49;;;;;;;19.00;13.50;;;;;;;16.75;79.31;101491.14;218805;1286;139847;-87
2023/04/09 10:59:52;;;;;;;18.00;12.40;;;;;;;16.82;78.83;101485.44;218355;1287;139240;-86
2023/04/09 11:04:55;;;;;;;21.20;13.60;;;;;;;16.83;77.83;101487.74;218908;1286;94661;-86
2023/04/09 11:09:55;;;;;;;18.30;12.10;;;;;;;16.66;77.46;101486.73;218233;1288;139585;-86
2023/04/09 11:14:56;;;;;;;15.80;10.80;;;;;;;16.47;76.91;101491.19;218813;1286;139311;-86
2023/04/09 11:19:56;;;;;;;17.10;11.20;;;;;;;16.51;78.14;101491.76;218313;1288;139847;-86
2023/04/09 11:24:57;;;;;;;15.30;10.60;;;;;;;16.55;77.09;101492.27;218878;1288;138977;-86
2023/04/09 11:29:57;;;;;;;19.30;11.70;;;;;;;16.48;76.90;101497.88;218313;1286;139912;-86
2023/04/09 11:34:58;;;;;;;17.20;10.70;;;;;;;16.34;75.68;101489.70;218980;1287;94545;-86
2023/04/09 11:39:58;;;;;;;16.00;11.00;;;;;;;16.08;76.39;101483.20;218319;1286;138688;-85
2023/04/09 11:44:59;;;;;;;18.40;11.60;;;;;;;15.90;76.42;101484.98;218894;1286;138951;-85
2023/04/09 11:50:00;;;;;;;15.90;11.10;;;;;;;15.92;77.19;101485.41;218257;1286;139567;-87
2023/04/09 11:55:03;;;;;;;14.60;10.50;;;;;;;15.90;76.61;101482.38;218839;1286;139846;-86
2023/04/09 12:00:12;;;;;;;14.90;10.00;;;;;;;15.76;76.66;101481.64;218387;1288;139660;-86
2023/04/09 12:05:24;;;;;;;17.90;11.60;;;;;;;15.75;77.36;101478.56;218898;1286;106539;-86
2023/04/09 12:10:32;;;;;;;16.30;10.70;;;;;;;15.69;77.29;101480.80;218173;1286;139081;-86
2023/04/09 12:15:34;;;;;;;16.50;10.10;;;;;;;15.65;77.40;101478.33;218841;1288;138884;-86
2023/04/09 12:20:38;;;;;;;16.10;10.30;;;;;;;15.74;78.64;101481.48;218291;1288;139663;-86
2023/04/09 12:25:44;;;;;;;12.80;8.60;;;;;;;15.95;78.37;101481.07;218763;1288;139219;-85
2023/04/09 12:30:45;;;;;;;14.10;8.80;;;;;;;15.98;78.28;101476.95;218289;1286;139384;-86
2023/04/09 12:35:45;;;;;;;14.10;9.80;;;;;;;15.98;78.57;101476.48;218886;1288;142026;-86
2023/04/09 12:40:46;;;;;;;16.50;9.90;;;;;;;16.08;78.71;101479.64;218467;1286;139178;-86
2023/04/09 12:45:46;;;;;;;14.60;9.70;;;;;;;16.16;78.17;101476.89;218868;1287;139709;-86
2023/04/09 12:50:47;;;;;;;13.90;10.10;;;;;;;16.16;77.70;101473.80;218401;1286;139207;-86
2023/04/09 12:55:48;;;;;;;14.00;9.70;;;;;;;16.09;77.40;101471.30;218846;1286;139007;-85
2023/04/09 13:00:48;;;;;;;16.40;10.40;;;;;;;16.03;77.96;101467.62;218369;1288;139664;-85
2023/04/09 13:05:49;;;;;;;13.30;9.80;;;;;;;16.03;77.21;101466.04;218932;1285;139211;-86
2023/04/09 13:10:50;;;;;;;13.70;9.90;;;;;;;15.86;77.49;101465.14;218722;1287;139206;-86
2023/04/09 13:15:51;;;;;;;14.40;10.00;;;;;;;15.85;78.36;101467.44;218990;1287;138595;-86
2023/04/09 13:20:51;;;;;;;17.30;11.70;;;;;;;15.79;77.63;101462.39;218482;1288;138907;-86
2023/04/09 13:25:51;;;;;;;17.40;12.10;;;;;;;15.76;77.89;101457.77;218812;1286;139146;-86
2023/04/09 13:30:52;;;;;;;15.50;10.80;;;;;;;15.70;78.82;101450.68;218445;1287;139304;-86
2023/04/09 13:35:52;;;;;;;18.40;11.30;;;;;;;15.75;78.58;101451.11;218954;1288;139099;-86
2023/04/09 13:40:53;;;;;;;16.80;12.10;;;;;;;15.85;79.01;101456.10;218540;1287;138924;-85
2023/04/09 13:45:54;;;;;;;16.80;11.50;;;;;;;15.82;78.06;101457.59;218939;1288;138895;-86
2023/04/09 13:50:54;;;;;;;17.70;12.60;;;;;;;15.80;78.78;101457.49;218463;1286;138925;-84
2023/04/09 13:55:54;;;;;;;17.20;12.20;;;;;;;15.94;79.79;101458.13;218988;1286;139132;-86
2023/04/09 14:00:55;;;;;;;17.60;11.20;;;;;;;16.12;78.48;101457.27;218432;1287;139581;-86
2023/04/09 14:05:56;;;;;;;18.20;11.40;;;;;;;16.09;78.51;101455.19;219173;1286;139083;-86
2023/04/09 14:10:56;;;;;;;15.40;11.40;;;;;;;16.15;77.84;101453.88;218558;1288;138960;-86
2023/04/09 14:15:57;;;;;;;17.50;11.00;;;;;;;16.17;77.86;101447.86;218970;1286;139207;-86
2023/04/09 14:20:57;;;;;;;14.10;9.10;;;;;;;16.18;78.35;101450.95;218469;1286;139550;-85
2023/04/09 14:25:59;;;;;;;15.10;10.10;;;;;;;16.22;77.85;101453.42;218895;1286;138694;-86
2023/04/09 14:31:00;;;;;;;17.60;11.50;;;;;;;16.24;77.25;101453.99;218355;1287;139973;-85
2023/04/09 14:36:00;;;;;;;14.90;9.20;;;;;;;16.06;76.87;101450.59;219025;1286;138965;-85
2023/04/09 14:41:01;;;;;;;13.70;8.50;;;;;;;15.92;77.00;101447.73;218551;1287;141343;-86
2023/04/09 14:46:02;;;;;;;13.10;8.80;;;;;;;15.74;76.50;101440.88;218976;1286;139114;-86
2023/04/09 14:51:03;;;;;;;12.70;8.10;;;;;;;15.53;77.54;101438.04;218362;1288;139349;-85
2023/04/09 14:56:04;;;;;;;13.90;9.10;;;;;;;15.44;77.71;101429.81;219000;1286;138847;-85
2023/04/09 15:01:05;;;;;;;15.00;9.60;;;;;;;15.26;77.68;101428.06;218562;1287;138732;-88
2023/04/09 15:06:05;;;;;;;12.80;8.70;;;;;;;15.03;77.89;101430.08;219002;1287;138829;-88
2023/04/09 15:11:07;;;;;;;15.80;8.60;;;;;;;14.83;78.48;101426.02;218511;1287;138982;-87
2023/04/09 15:16:07;;;;;;;13.90;8.70;;;;;;;14.62;79.31;101426.92;218961;1288;138539;-85
2023/04/09 15:21:08;;;;;;;27.40;16.60;;;;;;;14.62;79.74;101429.92;218381;1288;141241;-85
2023/04/09 15:26:08;;;;;;;15.80;10.50;;;;;;;14.48;79.99;101425.16;218919;1286;139275;-85
2023/04/09 15:31:09;;;;;;;16.30;10.50;;;;;;;14.36;80.23;101426.53;218232;1287;139546;-85
2023/04/09 15:36:10;;;;;;;15.40;10.50;;;;;;;14.24;80.94;101427.80;218987;1286;138858;-85
2023/04/09 15:41:10;;;;;;;16.00;10.20;;;;;;;14.19;81.61;101423.71;218602;1287;139035;-84
2023/04/09 15:46:11;;;;;;;16.70;9.90;;;;;;;14.17;81.47;101420.34;218869;1286;138861;-86
2023/04/09 15:51:12;;;;;;;15.60;10.50;;;;;;;13.98;81.22;101420.88;218361;1287;139309;-85
2023/04/09 15:56:15;;;;;;;15.60;10.40;;;;;;;13.77;81.92;101429.23;219064;1286;139037;-85
2023/04/09 16:01:16;;;;;;;15.80;10.10;;;;;;;13.63;82.64;101429.65;218384;1288;139553;-85
2023/04/09 16:06:17;;;;;;;17.70;10.90;;;;;;;13.65;83.35;101427.06;218999;1287;139147;-85
2023/04/09 16:11:17;;;;;;;17.00;10.80;;;;;;;13.61;83.27;101427.80;218536;1286;139483;-85
2023/04/09 16:16:18;;;;;;;17.60;9.20;;;;;;;13.57;83.64;101432.01;218740;1288;263690;-85
2023/04/09 16:21:19;;;;;;;15.90;9.90;;;;;;;13.47;83.55;101434.55;218367;1287;139059;-85
2023/04/09 16:26:19;;;;;;;16.20;10.40;;;;;;;13.36;83.81;101434.21;218961;1288;139435;-86
2023/04/09 16:31:20;;;;;;;15.20;10.20;;;;;;;13.31;84.42;101433.98;218435;1286;139337;-86
2023/04/09 16:36:21;;;;;;;16.40;10.00;;;;;;;13.33;84.79;101430.46;218843;1286;139242;-85
2023/04/09 16:41:21;;;;;;;14.90;9.60;;;;;;;13.36;84.80;101424.64;218525;1287;139267;-86
2023/04/09 16:46:21;;;;;;;14.50;9.70;;;;;;;13.34;84.84;101422.58;218946;1287;139371;-86
2023/04/09 16:51:22;;;;;;;13.40;9.20;;;;;;;13.27;84.85;101424.20;218375;1288;139528;-85
2023/04/09 16:56:22;;;;;;;16.20;10.00;;;;;;;13.17;84.69;101426.87;219015;1286;139473;-85
2023/04/09 17:01:23;;;;;;;17.20;10.50;;;;;;;13.06;84.74;101428.13;218434;1286;139344;-85
2023/04/09 17:06:23;;;;;;;16.40;10.30;;;;;;;12.94;85.05;101428.67;218978;1286;139562;-86
2023/04/09 17:11:23;;;;;;;15.80;9.60;;;;;;;12.85;85.17;101431.42;218503;1287;139507;-85
2023/04/09 17:16:24;;;;;;;18.70;11.90;;;;;;;12.77;85.46;101431.61;218973;1287;143109;-85
2023/04/09 17:21:25;;;;;;;18.90;10.60;;;;;;;12.65;85.35;101434.06;218355;1288;139803;-86
2023/04/09 17:26:25;;;;;;;17.60;10.30;;;;;;;12.43;85.33;101440.96;218864;1288;139694;-86
2023/04/09 17:31:26;;;;;;;15.70;10.60;;;;;;;12.23;86.07;101441.27;218449;1286;139824;-85
2023/04/09 17:36:26;;;;;;;21.10;12.10;;;;;;;12.09;86.56;101437.75;218928;1287;139929;-85
2023/04/09 17:41:27;;;;;;;19.60;13.20;;;;;;;11.97;87.22;101436.48;218385;1288;139316;-85
2023/04/09 17:46:28;;;;;;;19.30;12.30;;;;;;;11.83;87.75;101440.90;218915;1288;95792;-86
2023/04/09 17:51:28;;;;;;;21.40;12.60;;;;;;;11.68;88.12;101447.27;218494;1288;138751;-85
2023/04/09 17:56:29;;;;;;;22.00;13.90;;;;;;;11.54;88.56;101450.27;218898;1286;139005;-85
2023/04/09 18:01:30;;;;;;;21.10;13.40;;;;;;;11.39;88.88;101449.99;218391;1288;139444;-88
2023/04/09 18:06:30;;;;;;;20.00;12.10;;;;;;;11.20;89.48;101454.90;218912;1288;139090;-88
2023/04/09 18:11:31;;;;;;;23.10;13.20;;;;;;;11.03;90.02;101459.17;218301;1287;139503;-88
2023/04/09 18:16:31;;;;;;;20.50;12.80;;;;;;;10.83;90.36;101462.77;219085;1286;96070;-88
2023/04/09 18:21:32;;;;;;;19.50;12.00;;;;;;;10.65;91.15;101470.60;218388;1287;139934;-88
2023/04/09 18:26:32;;;;;;;21.30;14.00;;;;;;;10.44;91.63;101479.13;218901;1287;140523;-88
2023/04/09 18:31:33;;;;;;;19.10;12.10;;;;;;;10.24;91.98;101483.35;218363;1287;139298;-88
2023/04/09 18:36:34;;;;;;;20.40;12.60;;;;;;;10.09;92.20;101484.09;218960;1287;139662;-87
2023/04/09 18:41:34;;;;;;;37.00;23.50;;;;;;;9.95;92.96;101488.04;218386;1286;139497;-87
2023/04/09 18:46:35;;;;;;;46.90;28.50;;;;;;;9.84;93.27;101492.41;219056;1288;95989;-87
2023/04/09 18:51:35;;;;;;;110.50;51.80;;;;;;;9.76;93.58;101489.86;218301;1287;139116;-87
2023/04/09 18:56:36;;;;;;;86.10;41.30;;;;;;;9.69;94.45;101489.09;218969;1288;140287;-87
2023/04/09 19:01:36;;;;;;;60.90;32.40;;;;;;;9.58;95.27;101488.75;218471;1288;139380;-87
2023/04/09 19:06:37;;;;;;;46.00;27.00;;;;;;;9.49;96.06;101494.11;218938;1286;138836;-88
2023/04/09 19:11:37;;;;;;;39.30;23.20;;;;;;;9.38;96.53;101498.23;218377;1286;139415;-88
2023/04/09 19:16:38;;;;;;;36.70;20.80;;;;;;;9.31;97.29;101501.98;219030;1286;95936;-87
2023/04/09 19:21:38;;;;;;;31.40;19.20;;;;;;;9.23;97.44;101498.69;218441;1288;138699;-87
2023/04/09 19:26:39;;;;;;;28.00;18.00;;;;;;;9.16;97.71;101499.46;218921;1288;138745;-89
2023/04/09 19:31:40;;;;;;;36.60;19.00;;;;;;;9.10;98.47;101499.63;218273;1288;139260;-88
2023/04/09 19:36:40;;;;;;;33.90;19.40;;;;;;;9.02;98.56;101504.16;218950;1286;138700;-88
2023/04/09 19:41:41;;;;;;;28.50;16.80;;;;;;;8.97;98.62;101506.64;218419;1286;140131;-87
2023/04/09 19:46:41;;;;;;;31.40;18.10;;;;;;;8.92;98.69;101511.48;219010;1288;96075;-87
2023/04/09 19:51:41;;;;;;;42.00;24.20;;;;;;;8.88;98.60;101513.85;218422;1288;138441;-87
2023/04/09 19:56:42;;;;;;;34.30;21.70;;;;;;;8.87;98.97;101513.09;218970;1286;138659;-88
2023/04/09 20:01:42;;;;;;;34.50;20.70;;;;;;;8.84;99.22;101519.35;218419;1289;139067;-89
2023/04/09 20:06:43;;;;;;;37.70;22.90;;;;;;;8.81;99.55;101517.77;218949;1288;138690;-87
2023/04/09 20:11:44;;;;;;;37.00;21.90;;;;;;;8.79;99.65;101516.42;218303;1288;138972;-88
2023/04/09 20:16:44;;;;;;;36.00;23.40;;;;;;;8.75;99.96;101517.87;218973;1288;96393;-87
2023/04/09 20:21:45;;;;;;;33.50;19.90;;;;;;;8.73;99.98;101519.99;218394;1289;139895;-86
2023/04/09 20:26:46;;;;;;;34.80;20.50;;;;;;;8.72;99.90;101521.73;218890;1288;139466;-88
2023/04/09 20:31:46;;;;;;;39.40;21.30;;;;;;;8.70;99.96;101521.52;218322;1288;138782;-87
2023/04/09 20:36:47;;;;;;;34.20;20.20;;;;;;;8.69;99.99;101523.71;218716;1286;139026;-87
2023/04/09 20:41:47;;;;;;;39.20;22.20;;;;;;;8.68;100.00;101525.13;218350;1288;138942;-87
2023/04/09 20:46:48;;;;;;;38.50;21.50;;;;;;;8.67;100.00;101529.31;219053;1288;96004;-87
2023/04/09 20:51:50;;;;;;;34.50;20.40;;;;;;;8.66;100.00;101529.44;218373;1288;139155;-89
2023/04/09 20:56:51;;;;;;;31.50;19.40;;;;;;;8.65;100.00;101530.65;218782;1286;138603;-88
2023/04/09 21:01:53;;;;;;;30.80;17.70;;;;;;;8.59;100.00;101530.46;218356;1290;139192;-89
2023/04/09 21:06:54;;;;;;;33.10;20.00;;;;;;;8.50;100.00;101535.31;218888;1288;139871;-88
2023/04/09 21:11:54;;;;;;;31.70;19.70;;;;;;;8.46;100.00;101541.90;218383;1286;139188;-88
2023/04/09 21:16:55;;;;;;;29.60;18.90;;;;;;;8.40;100.00;101539.23;219008;1287;95917;-88
2023/04/09 21:21:55;;;;;;;29.60;18.30;;;;;;;8.34;100.00;101533.83;218426;1287;139132;-88
2023/04/09 21:26:57;;;;;;;34.00;19.20;;;;;;;8.30;100.00;101533.34;218977;1288;138831;-87
2023/04/09 21:31:59;;;;;;;35.90;19.90;;;;;;;8.28;100.00;101530.63;218453;1288;139839;-89
2023/04/09 21:37:01;;;;;;;37.60;19.50;;;;;;;8.24;100.00;101524.14;218852;1289;138983;-88
2023/04/09 21:42:02;;;;;;;34.50;19.30;;;;;;;8.22;100.00;101520.05;218278;1286;139678;-88
2023/04/09 21:47:06;;;;;;;30.70;19.50;;;;;;;8.21;100.00;101520.77;219056;1289;96651;-88
2023/04/09 21:52:12;;;;;;;32.30;19.70;;;;;;;8.19;100.00;101531.14;218267;1288;138956;-88
2023/04/09 21:57:13;;;;;;;34.50;20.80;;;;;;;8.17;100.00;101533.23;218876;1286;138633;-88
2023/04/09 22:02:13;;;;;;;30.50;18.70;;;;;;;8.14;100.00;101527.99;218401;1289;139010;-88
2023/04/09 22:07:14;;;;;;;30.90;18.50;;;;;;;8.10;100.00;101520.95;218871;1286;139272;-88
2023/04/09 22:12:14;;;;;;;35.20;21.00;;;;;;;8.06;100.00;101520.50;218502;1286;139006;-88
2023/04/09 22:17:15;;;;;;;35.90;21.50;;;;;;;8.00;100.00;101519.86;219012;1288;95986;-87
2023/04/09 22:22:16;;;;;;;34.30;20.20;;;;;;;7.94;100.00;101516.04;218426;1288;138598;-88